Avoca, Illinois
Current Conditions -  °F | °C
As of 3:55 AM on Tuesday 21 Oct 2014 (Local Time) from KPNT Reporting Station
Overcast Overcast  
Wind Chill:   Ceiling: 5000
Heat Index:   Visibility: 10mi
Dew Point:   Wind: 5mph
Humidity: 93%   Direction: 320°NW
Pressure: 30.03"   Gusts: NA
Location:  40.7318°N, 88.524°W
Report Text: KPNT 210855Z AUTO 32004KT 10SM OVC050 08/07 A3003 RMK AO2
Loading
Personal Weather Stations






























Interactive Weather Map New forecast layout! Learn more

10-Day Weather Forecast

Advertisements
Track Severe Weather on mobile